Data Viewer
| City | State | Eastern Time | Source | Temp | DewPt | RH | BP | 5 Min Precip | Wind Speed | Wind Dir | 5 Min Wind Max | 5 Min Wind Max Dir |
|---|---|---|---|---|---|---|---|---|---|---|---|---|
| Old Bridge | NJ | 2026-05-03 14:04 | NCAWOS | 26 | 33 | 29.90 | 10 | WNW | ||||
| Old Bridge | NJ | 2026-05-04 04:14 | NCAWOS | 34 | 57 | 29.97 | 6 | WSW | ||||
| Old Bridge | NJ | 2026-05-04 06:24 | NCAWOS | 35 | 58 | 29.97 | 6 | E | ||||
| Old Bridge | NJ | 2026-05-04 06:14 | NCAWOS | 35 | 58 | 29.97 | 8 | WSW | ||||
| Old Bridge | NJ | 2026-05-04 06:09 | NCAWOS | 35 | 58 | 29.97 | 6 | WSW | ||||
| Old Bridge | NJ | 2026-05-04 06:04 | NCAWOS | 35 | 58 | 29.96 | 9 | WSW | ||||
| Old Bridge | NJ | 2026-05-04 05:24 | NCAWOS | 34 | 57 | 29.97 | 8 | WSW | ||||
| Old Bridge | NJ | 2026-05-04 05:14 | NCAWOS | 34 | 57 | 29.97 | 8 | WSW | ||||
| Old Bridge | NJ | 2026-05-04 05:09 | NCAWOS | 34 | 57 | 29.97 | 7 | WSW | ||||
| Old Bridge | NJ | 2026-05-04 05:04 | NCAWOS | 34 | 57 | 29.97 | 7 | WSW | ||||
| Old Bridge | NJ | 2026-05-04 04:24 | NCAWOS | 34 | 57 | 29.97 | 3 | SW | ||||
| Old Bridge | NJ | 2026-05-04 04:09 | NCAWOS | 34 | 57 | 29.97 | 5 | WSW | ||||
| Old Bridge | NJ | 2026-05-04 07:24 | NCAWOS | 39 | 58 | 29.97 | 8 | WSW | ||||
| Old Bridge | NJ | 2026-05-04 04:04 | NCAWOS | 34 | 57 | 29.97 | 6 | WSW | ||||
| Old Bridge | NJ | 2026-05-04 03:19 | NCAWOS | 32 | 53 | 29.96 | 8 | WSW | ||||
| Old Bridge | NJ | 2026-05-04 03:14 | NCAWOS | 30 | 50 | 29.96 | 6 | W | ||||
| Old Bridge | NJ | 2026-05-04 03:09 | NCAWOS | 30 | 50 | 29.96 | 3 | W | ||||
| Old Bridge | NJ | 2026-05-04 03:04 | NCAWOS | 32 | 53 | 29.96 | 3 | W | ||||
| Old Bridge | NJ | 2026-05-04 02:24 | NCAWOS | 30 | 50 | 29.96 | 3 | WSW | ||||
| Old Bridge | NJ | 2026-05-04 02:20 | NCAWOS | 30 | 50 | 29.96 | 5 | WSW | ||||
| Old Bridge | NJ | 2026-05-04 02:14 | NCAWOS | 30 | 50 | 29.96 | 5 | WSW | ||||
| Old Bridge | NJ | 2026-05-04 02:09 | NCAWOS | 30 | 50 | 29.96 | 5 | WSW | ||||
| Old Bridge | NJ | 2026-05-04 07:04 | NCAWOS | 37 | 58 | 29.97 | 8 | W | ||||
| Old Bridge | NJ | 2026-05-04 08:04 | NCAWOS | 41 | 58 | 29.96 | 10 | WSW | ||||
| Old Bridge | NJ | 2026-05-04 02:00 | NCAWOS | 30 | 50 | 29.96 | 5 | WSW | ||||
| Old Bridge | NJ | 2026-05-04 11:04 | NCAWOS | 37 | 37 | 29.93 | 8 | W | ||||
| Old Bridge | NJ | 2026-05-04 13:04 | NCAWOS | 34 | 26 | 29.89 | 9 | W | ||||
| Old Bridge | NJ | 2026-05-04 12:24 | NCAWOS | 34 | 28 | 29.90 | 13 | W | ||||
| Old Bridge | NJ | 2026-05-04 12:19 | NCAWOS | 34 | 28 | 29.90 | 14 | WSW | ||||
| Old Bridge | NJ | 2026-05-04 12:14 | NCAWOS | 34 | 28 | 29.91 | 11 | W | ||||
| Old Bridge | NJ | 2026-05-04 12:04 | NCAWOS | 36 | 30 | 29.91 | 13 | WSW | ||||
| Old Bridge | NJ | 2026-05-04 11:24 | NCAWOS | 37 | 35 | 29.92 | 10 | WSW | ||||
| Old Bridge | NJ | 2026-05-04 11:19 | NCAWOS | 36 | 32 | 29.93 | 8 | W | ||||
| Old Bridge | NJ | 2026-05-04 11:15 | NCAWOS | 36 | 32 | 29.93 | 8 | W | ||||
| Old Bridge | NJ | 2026-05-04 11:09 | NCAWOS | 37 | 35 | 29.93 | 8 | W | ||||
| Old Bridge | NJ | 2026-05-04 10:29 | NCAWOS | 37 | 37 | 29.93 | 9 | WSW | ||||
| Old Bridge | NJ | 2026-05-04 08:09 | NCAWOS | 39 | 54 | 29.96 | 7 | WSW | ||||
| Old Bridge | NJ | 2026-05-04 10:24 | NCAWOS | 37 | 37 | 29.93 | 9 | W | ||||
| Old Bridge | NJ | 2026-05-04 10:19 | NCAWOS | 37 | 37 | 29.93 | 6 | W | ||||
| Old Bridge | NJ | 2026-05-04 10:14 | NCAWOS | 37 | 39 | 29.93 | 9 | W | ||||
| Old Bridge | NJ | 2026-05-04 10:09 | NCAWOS | 37 | 39 | 29.93 | 9 | W | ||||
| Old Bridge | NJ | 2026-05-04 10:04 | NCAWOS | 37 | 39 | 29.93 | 9 | W | ||||
| Old Bridge | NJ | 2026-05-04 09:25 | NCAWOS | 37 | 42 | 29.95 | 9 | W | ||||
| Old Bridge | NJ | 2026-05-04 09:09 | NCAWOS | 37 | 42 | 29.95 | 10 | W | ||||
| Old Bridge | NJ | 2026-05-04 09:05 | NCAWOS | 37 | 42 | 29.95 | 10 | WSW | ||||
| Old Bridge | NJ | 2026-05-04 08:18 | NCAWOS | 39 | 51 | 29.96 | 6 | W | ||||
| Old Bridge | NJ | 2026-05-04 02:04 | NCAWOS | 30 | 50 | 29.96 | 5 | WSW | ||||
| Old Bridge | NJ | 2026-05-04 01:24 | NCAWOS | 30 | 50 | 29.95 | 3 | WSW | ||||
| Old Bridge | NJ | 2026-05-03 14:09 | NCAWOS | 26 | 33 | 29.89 | 10 | W | ||||
| Old Bridge | NJ | 2026-05-03 16:24 | NCAWOS | 23 | 23 | 29.86 | 10 | WNW | ||||
| Old Bridge | NJ | 2026-05-03 18:24 | NCAWOS | 23 | 23 | 29.86 | 8 | WNW | ||||
| Old Bridge | NJ | 2026-05-03 18:14 | NCAWOS | 23 | 23 | 29.86 | 10 | WNW | ||||
| Old Bridge | NJ | 2026-05-03 18:09 | NCAWOS | 23 | 23 | 29.87 | 10 | NW | ||||
| Old Bridge | NJ | 2026-05-03 18:04 | NCAWOS | 21 | 22 | 29.86 | 7 | WNW | ||||
| Old Bridge | NJ | 2026-05-03 17:29 | NCAWOS | 23 | 23 | 29.86 | 16 | WNW | ||||
| Old Bridge | NJ | 2026-05-03 17:24 | NCAWOS | 23 | 23 | 29.86 | 11 | NNW | ||||
| Old Bridge | NJ | 2026-05-03 17:09 | NCAWOS | 23 | 23 | 29.86 | 15 | W | ||||
| Old Bridge | NJ | 2026-05-03 17:04 | NCAWOS | 25 | 25 | 29.86 | 14 | WNW | ||||
| Old Bridge | NJ | 2026-05-03 16:29 | NCAWOS | 23 | 23 | 29.85 | 10 | W | ||||
| Old Bridge | NJ | 2026-05-03 16:19 | NCAWOS | 23 | 23 | 29.86 | 10 | NW | ||||
| Old Bridge | NJ | 2026-05-03 19:24 | NCAWOS | 23 | 23 | 29.87 | 3 | W | ||||
| Old Bridge | NJ | 2026-05-03 16:09 | NCAWOS | 23 | 23 | 29.86 | 13 | NW | ||||
| Old Bridge | NJ | 2026-05-03 16:05 | NCAWOS | 25 | 25 | 29.86 | 11 | NW | ||||
| Old Bridge | NJ | 2026-05-03 15:25 | NCAWOS | 23 | 26 | 29.87 | 8 | WNW | ||||
| Old Bridge | NJ | 2026-05-03 15:19 | NCAWOS | 25 | 28 | 29.88 | 10 | WNW | ||||
| Old Bridge | NJ | 2026-05-03 15:14 | NCAWOS | 25 | 27 | 29.88 | 15 | WNW | ||||
| Old Bridge | NJ | 2026-05-03 15:09 | NCAWOS | 25 | 28 | 29.88 | 10 | WNW | ||||
| Old Bridge | NJ | 2026-05-03 15:04 | NCAWOS | 25 | 27 | 29.88 | 15 | NW | ||||
| Old Bridge | NJ | 2026-05-03 14:24 | NCAWOS | 25 | 30 | 29.90 | 8 | N | ||||
| Old Bridge | NJ | 2026-05-03 14:19 | NCAWOS | 25 | 30 | 29.89 | 9 | W | ||||
| Old Bridge | NJ | 2026-05-03 19:04 | NCAWOS | 23 | 23 | 29.87 | 7 | WNW | ||||
| Old Bridge | NJ | 2026-05-03 20:04 | NCAWOS | 23 | 26 | 29.88 | 3 | W | ||||
| Old Bridge | NJ | 2026-05-04 01:20 | NCAWOS | 30 | 46 | 29.94 | 3 | WSW | ||||
| Old Bridge | NJ | 2026-05-03 23:19 | NCAWOS | 28 | 40 | 29.92 | 3 | WSW | ||||
| Old Bridge | NJ | 2026-05-04 01:14 | NCAWOS | 30 | 46 | 29.94 | 3 | W | ||||
| Old Bridge | NJ | 2026-05-04 01:09 | NCAWOS | 30 | 46 | 29.94 | 5 | WSW | ||||
| Old Bridge | NJ | 2026-05-04 01:04 | NCAWOS | 30 | 46 | 29.94 | 5 | WSW | ||||
| Old Bridge | NJ | 2026-05-04 00:29 | NCAWOS | 30 | 46 | 29.94 | 3 | WSW | ||||
| Old Bridge | NJ | 2026-05-04 00:24 | NCAWOS | 30 | 46 | 29.94 | 3 | WSW | ||||
| Old Bridge | NJ | 2026-05-04 00:15 | NCAWOS | 30 | 46 | 29.93 | 3 | WSW | ||||
| Old Bridge | NJ | 2026-05-04 00:09 | NCAWOS | 28 | 43 | 29.93 | 3 | WSW | ||||
| Old Bridge | NJ | 2026-05-04 00:04 | NCAWOS | 28 | 43 | 29.93 | 3 | WSW | ||||
| Old Bridge | NJ | 2026-05-03 23:24 | NCAWOS | 28 | 40 | 29.93 | 5 | WSW | ||||
| Old Bridge | NJ | 2026-05-03 23:14 | NCAWOS | 28 | 40 | 29.92 | 3 | SW | ||||
| Old Bridge | NJ | 2026-05-03 20:14 | NCAWOS | 25 | 28 | 29.88 | 0 | N | ||||
| Old Bridge | NJ | 2026-05-03 23:09 | NCAWOS | 28 | 40 | 29.92 | 3 | WSW | ||||
| Old Bridge | NJ | 2026-05-03 23:04 | NCAWOS | 28 | 40 | 29.92 | 3 | WSW | ||||
| Old Bridge | NJ | 2026-05-03 22:14 | NCAWOS | 28 | 43 | 29.92 | 0 | N | ||||
| Old Bridge | NJ | 2026-05-03 22:09 | NCAWOS | 28 | 43 | 29.92 | 0 | N | ||||
| Old Bridge | NJ | 2026-05-03 22:04 | NCAWOS | 28 | 40 | 29.92 | 0 | N | ||||
| Old Bridge | NJ | 2026-05-03 21:24 | NCAWOS | 26 | 35 | 29.91 | 0 | N | ||||
| Old Bridge | NJ | 2026-05-03 21:14 | NCAWOS | 26 | 35 | 29.91 | 0 | N | ||||
| Old Bridge | NJ | 2026-05-03 21:09 | NCAWOS | 26 | 35 | 29.91 | 0 | N | ||||
| Old Bridge | NJ | 2026-05-03 21:05 | NCAWOS | 26 | 35 | 29.91 | 0 | N | ||||
| Old Bridge | NJ | 2026-05-03 20:24 | NCAWOS | 26 | 33 | 29.89 | 0 | N | ||||
| Old Bridge | NJ | 2026-05-04 13:14 | NCAWOS | 36 | 28 | 29.88 | 7 | W |
data collection created in 0.015489101409912 (queried in 0.003744) rendered in: 0.00013303756713867

